Time;durP1;ratioP1;P1;durP2;ratioP2;P2;SDS_P1;SDS_P2;PMS_P1;PMS_P2;Temp;Humidity;BMP_temperature;BMP_pressure;BME280_temperature;BME280_humidity;BME280_pressure;Samples;Min_cycle;Max_cycle;Signal;HPM_P1;HPM_P2
2023/01/16 00:01:25;;;;;;;4.68;2.58;;;3.60;99.90;;;;;;5017400;28;20434;-83
2023/01/16 00:03:50;;;;;;;5.03;2.70;;;3.60;99.90;;;;;;5017032;28;20500;-84
2023/01/16 00:06:16;;;;;;;6.38;2.67;;;3.60;99.90;;;;;;5017094;28;20124;-82
2023/01/16 00:08:42;;;;;;;5.60;2.78;;;3.60;99.90;;;;;;5000668;28;20132;-83
2023/01/16 00:11:09;;;;;;;4.60;2.75;;;3.70;99.90;;;;;;5034662;28;20053;-83
2023/01/16 00:13:34;;;;;;;8.23;2.53;;;3.70;99.90;;;;;;5034547;28;20398;-83
2023/01/16 00:16:00;;;;;;;7.32;2.42;;;3.80;99.90;;;;;;5034464;28;20041;-83
2023/01/16 00:18:26;;;;;;;4.47;2.30;;;3.80;99.90;;;;;;5016756;28;20041;-84
2023/01/16 00:20:51;;;;;;;6.95;2.50;;;3.90;99.90;;;;;;5034560;28;20067;-83
2023/01/16 00:23:17;;;;;;;5.22;2.10;;;3.90;99.90;;;;;;5017117;28;20046;-83
2023/01/16 00:25:43;;;;;;;5.82;2.45;;;3.90;99.90;;;;;;5016897;28;20048;-84
2023/01/16 00:28:10;;;;;;;6.10;2.40;;;3.90;99.90;;;;;;5000705;28;20045;-84
2023/01/16 00:30:36;;;;;;;6.10;2.53;;;4.80;99.90;;;;;;5016734;28;20128;-82
2023/01/16 00:33:03;;;;;;;6.77;2.50;;;4.50;99.90;;;;;;5017015;28;20397;-83
2023/01/16 00:35:29;;;;;;;4.60;2.28;;;4.10;99.90;;;;;;5000437;28;20045;-83
2023/01/16 00:37:54;;;;;;;7.13;2.78;;;4.30;99.90;;;;;;5033928;28;20049;-84
2023/01/16 00:40:20;;;;;;;6.03;2.38;;;4.10;99.90;;;;;;5016680;28;20099;-83
2023/01/16 00:42:46;;;;;;;9.45;2.80;;;4.20;99.90;;;;;;5000479;28;20041;-84
2023/01/16 00:45:11;;;;;;;8.43;2.30;;;4.20;99.90;;;;;;5016665;28;20038;-83
2023/01/16 00:47:37;;;;;;;4.65;2.20;;;4.20;99.90;;;;;;5016778;28;20449;-84
2023/01/16 00:50:04;;;;;;;7.15;2.72;;;4.20;99.90;;;;;;5016313;28;20482;-83
2023/01/16 00:52:29;;;;;;;7.68;2.58;;;4.20;99.90;;;;;;5016565;28;20049;-82
2023/01/16 00:54:55;;;;;;;3.00;2.17;;;4.10;99.90;;;;;;5016256;28;20038;-84
2023/01/16 00:57:21;;;;;;;4.68;2.35;;;4.10;99.90;;;;;;5016422;28;20048;-84
2023/01/16 00:59:46;;;;;;;5.57;2.47;;;4.20;99.90;;;;;;5016246;28;20057;-84
2023/01/16 01:02:12;;;;;;;5.85;2.45;;;4.20;99.90;;;;;;5016346;28;20045;-84
2023/01/16 01:04:37;;;;;;;5.00;2.85;;;4.20;99.90;;;;;;5016368;28;20497;-84
2023/01/16 01:07:03;;;;;;;4.63;2.45;;;4.20;99.90;;;;;;5033748;28;20493;-83
2023/01/16 01:09:29;;;;;;;5.00;2.20;;;4.20;99.90;;;;;;5015779;28;20136;-84
2023/01/16 01:11:57;;;;;;;7.18;2.70;;;4.20;99.90;;;;;;4999989;28;20046;-83
2023/01/16 01:14:22;;;;;;;4.95;2.05;;;4.20;99.90;;;;;;5016141;28;20496;-84
2023/01/16 01:16:48;;;;;;;11.63;2.50;;;4.20;99.90;;;;;;5016273;28;20045;-84
2023/01/16 01:19:13;;;;;;;7.93;2.55;;;4.20;99.90;;;;;;5033798;28;20037;-82
2023/01/16 01:21:39;;;;;;;5.40;2.25;;;4.30;99.90;;;;;;5016269;28;20466;-83
2023/01/16 01:24:05;;;;;;;6.80;2.03;;;4.30;99.90;;;;;;5016676;28;20095;-83
2023/01/16 01:26:30;;;;;;;4.85;2.53;;;4.30;99.90;;;;;;5017112;28;20043;-84
2023/01/16 01:28:56;;;;;;;2.50;1.63;;;4.30;99.90;;;;;;5000234;28;20038;-83
2023/01/16 01:31:21;;;;;;;5.30;2.05;;;4.30;99.90;;;;;;5000070;28;20053;-84
2023/01/16 01:33:47;;;;;;;10.35;3.10;;;4.40;99.90;;;;;;4999605;28;20060;-82
2023/01/16 01:36:13;;;;;;;5.28;2.22;;;4.40;99.90;;;;;;5015567;28;20062;-83
2023/01/16 01:38:39;;;;;;;6.60;2.33;;;4.40;99.90;;;;;;5033567;28;20046;-84
2023/01/16 01:41:05;;;;;;;9.50;2.05;;;4.40;99.90;;;;;;5015661;28;20041;-84
2023/01/16 01:43:49;;;;;;;3.87;2.10;;;4.40;99.90;;;;;;5001763;28;20053;-83
2023/01/16 01:46:28;;;;;;;10.57;2.13;;;4.20;99.90;;;;;;5020243;28;20289;-83
2023/01/16 01:48:59;;;;;;;7.05;2.00;;;4.40;99.90;;;;;;5037487;28;20049;-83
2023/01/16 01:51:34;;;;;;;4.60;2.10;;;4.40;99.90;;;;;;5003575;28;20470;-84
2023/01/16 01:54:12;;;;;;;10.18;2.45;;;4.40;99.90;;;;;;5019970;28;20049;-82
2023/01/16 01:57:03;;;;;;;5.30;2.10;;;4.40;99.90;;;;;;5037212;28;20048;-84
2023/01/16 01:59:46;;;;;;;10.18;2.35;;;4.40;99.90;;;;;;5003550;28;20137;-84
2023/01/16 02:02:18;;;;;;;8.52;2.85;;;4.40;99.90;;;;;;5020358;28;20436;-82
2023/01/16 02:04:45;;;;;;;6.63;2.40;;;4.40;99.90;;;;;;5037747;28;20111;-83
2023/01/16 02:07:15;;;;;;;7.05;2.28;;;4.40;99.90;;;;;;5019461;28;20049;-82
2023/01/16 02:09:41;;;;;;;6.30;2.13;;;4.40;99.90;;;;;;5019567;28;20041;-82
2023/01/16 02:12:10;;;;;;;3.45;2.50;;;4.40;99.90;;;;;;5036900;28;20128;-83
2023/01/16 02:14:39;;;;;;;5.70;2.17;;;4.40;99.90;;;;;;5036738;28;20041;-83
2023/01/16 02:20:15;;;;;;;6.30;2.22;;;4.40;99.90;;;;;;5019499;28;20077;-83
2023/01/16 02:22:50;;;;;;;4.68;2.03;;;4.40;99.90;;;;;;5036694;28;20053;-82
2023/01/16 02:25:40;;;;;;;7.05;2.53;;;4.50;99.90;;;;;;5036692;28;20045;-82
2023/01/16 02:28:27;;;;;;;4.50;2.00;;;4.50;99.90;;;;;;5019243;28;20042;-82
2023/01/16 02:31:20;;;;;;;5.22;2.10;;;4.50;99.90;;;;;;5018921;28;20485;-84
2023/01/16 02:33:57;;;;;;;7.55;2.30;;;4.50;99.90;;;;;;5019787;28;20063;-84
2023/01/16 02:36:32;;;;;;;;;;;4.50;99.90;;;;;;5019336;28;20067;-82
2023/01/16 02:39:29;;;;;;;5.82;2.58;;;4.50;99.90;;;;;;5002714;28;19972;-82
2023/01/16 02:42:03;;;;;;;8.70;2.38;;;4.50;99.90;;;;;;5036501;28;20107;-83
2023/01/16 02:45:04;;;;;;;6.38;2.20;;;4.60;99.90;;;;;;5002552;28;20525;-84
2023/01/16 02:48:02;;;;;;;6.53;2.58;;;4.40;99.90;;;;;;5015095;28;20056;-84
2023/01/16 02:50:54;;;;;;;2.95;2.20;;;4.40;99.90;;;;;;5019289;28;20052;-82
2023/01/16 02:53:26;;;;;;;5.18;2.50;;;4.40;99.90;;;;;;5036378;28;20060;-83
2023/01/16 02:56:07;;;;;;;8.05;2.42;;;4.40;99.90;;;;;;5036608;28;20045;-83
2023/01/16 02:58:33;;;;;;;3.92;2.30;;;4.40;99.90;;;;;;5036380;28;20053;-84
2023/01/16 03:00:59;;;;;;;4.20;2.33;;;4.40;99.90;;;;;;5018602;28;20522;-84
2023/01/16 03:03:49;;;;;;;3.85;2.50;;;4.40;99.90;;;;;;5018709;28;20295;-84
2023/01/16 03:06:29;;;;;;;4.38;2.38;;;4.40;99.90;;;;;;5018389;28;20049;-83
2023/01/16 03:09:00;;;;;;;5.63;2.28;;;4.30;99.90;;;;;;5018015;28;20494;-83
2023/01/16 03:11:27;;;;;;;9.18;2.28;;;4.30;99.90;;;;;;5036173;28;20442;-83
2023/01/16 03:14:15;;;;;;;4.78;2.25;;;4.30;99.90;;;;;;5018300;28;20034;-84
2023/01/16 03:17:13;;;;;;;6.45;2.50;;;4.20;99.90;;;;;;5018386;28;20092;-82
2023/01/16 03:20:12;;;;;;;8.60;2.33;;;5.00;99.90;;;;;;4959685;28;20053;-82
2023/01/16 03:23:19;;;;;;;10.07;2.78;;;4.20;99.90;;;;;;5018135;28;20800;-82
2023/01/16 03:26:00;;;;;;;6.88;2.78;;;4.10;99.90;;;;;;4980174;28;20057;-82
2023/01/16 03:28:29;;;;;;;3.40;2.58;;;4.20;99.90;;;;;;5018367;28;20046;-82
2023/01/16 03:31:07;;;;;;;4.53;2.60;;;4.20;99.90;;;;;;5017865;28;20045;-82
2023/01/16 03:33:52;;;;;;;6.68;3.08;;;4.20;99.90;;;;;;5017879;28;20489;-83
2023/01/16 03:36:29;;;;;;;4.57;3.20;;;4.20;99.90;;;;;;5017259;28;20536;-83
2023/01/16 03:38:57;;;;;;;5.88;3.10;;;4.20;99.90;;;;;;5018088;28;20371;-83
2023/01/16 03:41:26;;;;;;;6.40;3.53;;;4.30;99.90;;;;;;5001262;28;20037;-82
2023/01/16 03:43:59;;;;;;;5.88;3.90;;;4.30;99.90;;;;;;5017810;28;20042;-83
2023/01/16 03:46:34;;;;;;;5.30;3.47;;;4.30;99.90;;;;;;5017569;28;20124;-82
2023/01/16 03:49:13;;;;;;;6.03;3.92;;;4.30;99.90;;;;;;5018009;28;20061;-84
2023/01/16 03:51:45;;;;;;;7.40;4.22;;;4.30;99.90;;;;;;5001890;28;20526;-82
2023/01/16 03:54:30;;;;;;;10.43;4.53;;;4.30;99.90;;;;;;5018325;28;20476;-83
2023/01/16 03:57:06;;;;;;;7.07;5.00;;;4.30;99.90;;;;;;5018003;28;20504;-82
2023/01/16 03:59:31;;;;;;;9.40;4.50;;;4.30;99.90;;;;;;5018436;28;20112;-83
2023/01/16 04:02:04;;;;;;;8.73;4.95;;;4.30;99.90;;;;;;5017689;28;20470;-83
2023/01/16 04:04:48;;;;;;;6.75;4.80;;;4.60;99.90;;;;;;5017579;28;20413;-82
2023/01/16 04:07:28;;;;;;;6.18;4.95;;;4.20;99.90;;;;;;5016879;28;20482;-82
2023/01/16 04:10:00;;;;;;;9.32;5.63;;;4.20;99.90;;;;;;5017786;28;20132;-82
2023/01/16 04:12:35;;;;;;;9.45;5.75;;;4.20;99.90;;;;;;5017381;28;20499;-83
2023/01/16 04:15:03;;;;;;;9.30;6.43;;;4.20;99.90;;;;;;5034861;28;20041;-83
2023/01/16 04:17:29;;;;;;;10.07;6.45;;;4.10;99.90;;;;;;5017568;28;20049;-82
2023/01/16 04:19:55;;;;;;;13.30;6.88;;;4.20;99.90;;;;;;5034533;28;20120;-82
2023/01/16 04:22:26;;;;;;;13.30;7.80;;;4.20;99.90;;;;;;5034202;28;20179;-83
2023/01/16 04:24:55;;;;;;;9.40;7.38;;;4.20;99.90;;;;;;5017041;28;20136;-84
2023/01/16 04:27:20;;;;;;;12.52;7.63;;;4.20;99.90;;;;;;5016743;28;20523;-83
2023/01/16 04:29:46;;;;;;;10.60;7.47;;;4.10;99.90;;;;;;5000829;28;20084;-83
2023/01/16 04:32:13;;;;;;;13.05;8.05;;;4.20;99.90;;;;;;5016681;28;20073;-84
2023/01/16 04:34:38;;;;;;;14.10;8.38;;;4.10;99.90;;;;;;5001055;28;20052;-82
2023/01/16 04:37:04;;;;;;;10.50;7.20;;;4.10;99.90;;;;;;5016455;28;20049;-84
2023/01/16 04:39:29;;;;;;;17.73;9.05;;;4.10;99.90;;;;;;5034583;28;20104;-83
2023/01/16 04:41:55;;;;;;;13.68;7.50;;;4.10;99.90;;;;;;5034144;28;20041;-82
2023/01/16 04:44:21;;;;;;;15.68;7.82;;;4.10;99.90;;;;;;5033854;28;20049;-84
2023/01/16 04:46:46;;;;;;;11.48;7.55;;;4.10;99.90;;;;;;5016450;28;20034;-83
2023/01/16 04:49:12;;;;;;;10.63;6.93;;;4.10;99.90;;;;;;5033603;28;20424;-82
2023/01/16 04:51:38;;;;;;;9.43;6.57;;;4.00;99.90;;;;;;5016398;28;20048;-81
2023/01/16 04:54:06;;;;;;;11.32;6.13;;;4.10;99.90;;;;;;5034371;28;20092;-83
2023/01/16 04:56:32;;;;;;;9.95;5.78;;;4.10;99.90;;;;;;5034108;28;20084;-84
2023/01/16 04:58:57;;;;;;;10.65;6.45;;;4.10;99.90;;;;;;5034053;28;20076;-83
2023/01/16 05:01:23;;;;;;;13.60;5.72;;;4.00;99.90;;;;;;5016644;28;20045;-82
2023/01/16 05:03:49;;;;;;;9.97;6.03;;;4.00;99.90;;;;;;4999907;28;20057;-82
2023/01/16 05:06:15;;;;;;;14.80;5.80;;;3.90;99.90;;;;;;5016166;28;20379;-82
2023/01/16 05:08:41;;;;;;;9.65;5.60;;;3.90;99.90;;;;;;5016376;28;20298;-83
2023/01/16 05:11:07;;;;;;;12.50;5.30;;;3.80;99.90;;;;;;5000057;28;20112;-84
2023/01/16 05:13:33;;;;;;;12.10;6.30;;;3.70;99.90;;;;;;5000004;28;20049;-83
2023/01/16 05:15:58;;;;;;;11.48;5.43;;;3.70;99.90;;;;;;5033699;28;20401;-82
2023/01/16 05:18:24;;;;;;;8.65;4.78;;;3.60;99.90;;;;;;5016099;28;20132;-82
2023/01/16 05:20:50;;;;;;;9.05;5.32;;;3.50;99.90;;;;;;5016864;28;20493;-83
2023/01/16 05:23:15;;;;;;;12.05;5.10;;;3.50;99.90;;;;;;5016082;28;20128;-83
2023/01/16 05:25:42;;;;;;;10.32;5.00;;;3.40;99.90;;;;;;5016293;28;20458;-83
2023/01/16 05:28:08;;;;;;;7.22;4.75;;;3.40;99.90;;;;;;5033530;28;20049;-83
2023/01/16 05:30:34;;;;;;;11.73;5.43;;;3.30;99.90;;;;;;5033178;28;20076;-84
2023/01/16 05:33:01;;;;;;;9.23;5.10;;;3.30;99.90;;;;;;5033392;28;20049;-83
2023/01/16 05:35:27;;;;;;;13.95;5.53;;;3.30;99.90;;;;;;5016659;28;20131;-83
2023/01/16 05:37:53;;;;;;;8.40;5.10;;;3.20;99.90;;;;;;5016881;28;20049;-83
2023/01/16 05:40:18;;;;;;;8.18;5.40;;;3.20;99.90;;;;;;5001695;28;20053;-83
2023/01/16 05:42:46;;;;;;;8.02;5.20;;;3.10;99.90;;;;;;5034808;28;20459;-82
2023/01/16 05:45:11;;;;;;;9.98;5.70;;;3.10;99.90;;;;;;5003180;28;20060;-82
2023/01/16 05:47:37;;;;;;;8.02;4.75;;;3.10;99.90;;;;;;5002972;28;20046;-83
2023/01/16 05:50:03;;;;;;;12.80;5.10;;;3.10;99.90;;;;;;5016837;28;20077;-82
2023/01/16 05:52:29;;;;;;;8.83;5.03;;;3.10;99.90;;;;;;5034296;28;20103;-83
2023/01/16 05:54:55;;;;;;;10.77;5.35;;;3.10;99.90;;;;;;5000331;28;20037;-83
2023/01/16 05:57:22;;;;;;;11.75;4.15;;;3.20;99.90;;;;;;4999803;28;20045;-83
2023/01/16 05:59:49;;;;;;;9.13;4.38;;;3.30;99.90;;;;;;4999565;28;20049;-84
2023/01/16 06:02:16;;;;;;;10.07;4.80;;;3.20;99.90;;;;;;5015693;28;20049;-83
2023/01/16 06:04:41;;;;;;;8.00;4.60;;;3.20;99.90;;;;;;5016042;28;20049;-83
2023/01/16 06:07:07;;;;;;;11.02;4.68;;;3.20;99.90;;;;;;5015895;28;20052;-83
2023/01/16 06:09:32;;;;;;;6.10;4.05;;;3.20;99.90;;;;;;5016240;28;20041;-82
2023/01/16 06:11:58;;;;;;;7.38;4.57;;;3.20;99.90;;;;;;5000102;28;20046;-84
2023/01/16 06:14:24;;;;;;;13.90;4.55;;;3.70;99.90;;;;;;5016082;28;20044;-83
2023/01/16 06:16:49;;;;;;;7.35;4.20;;;3.30;99.90;;;;;;5000197;28;20052;-80
2023/01/16 06:19:15;;;;;;;15.18;4.55;;;3.30;99.90;;;;;;4999600;28;20560;-84
2023/01/16 06:21:41;;;;;;;10.75;4.75;;;3.30;99.90;;;;;;5015756;28;20046;-84
2023/01/16 06:24:07;;;;;;;8.88;4.18;;;3.30;99.90;;;;;;4999285;28;20411;-84
2023/01/16 06:26:32;;;;;;;7.05;4.40;;;3.30;99.90;;;;;;5015373;28;20442;-83
2023/01/16 06:28:58;;;;;;;9.02;4.30;;;3.30;99.90;;;;;;5033741;28;20049;-83
2023/01/16 06:31:24;;;;;;;8.20;4.15;;;3.30;99.90;;;;;;5019029;28;20045;-83
2023/01/16 06:33:49;;;;;;;11.10;5.50;;;3.30;99.90;;;;;;5002986;28;20060;-82
2023/01/16 06:36:15;;;;;;;9.80;4.30;;;3.20;99.90;;;;;;5016143;28;20058;-81
2023/01/16 06:38:41;;;;;;;11.32;4.30;;;3.20;99.90;;;;;;5018287;28;20037;-83
2023/01/16 06:41:07;;;;;;;8.27;4.38;;;3.20;99.90;;;;;;5001636;28;20371;-85
2023/01/16 06:43:32;;;;;;;10.75;4.70;;;3.20;99.90;;;;;;5001915;28;20045;-84
2023/01/16 06:45:58;;;;;;;10.38;3.78;;;3.10;99.90;;;;;;5023441;28;20046;-84
2023/01/16 06:48:24;;;;;;;11.88;4.40;;;3.10;99.90;;;;;;5005461;28;20049;-85
2023/01/16 06:50:49;;;;;;;11.50;4.30;;;3.00;99.90;;;;;;4999010;28;20042;-84
2023/01/16 06:53:15;;;;;;;5.85;4.03;;;3.00;99.90;;;;;;5016522;28;20054;-85
2023/01/16 06:55:41;;;;;;;8.27;4.50;;;3.00;99.90;;;;;;4998858;28;20128;-85
2023/01/16 06:58:08;;;;;;;10.23;4.40;;;3.00;99.90;;;;;;4998946;28;20041;-85
2023/01/16 07:00:34;;;;;;;11.75;4.60;;;3.00;99.90;;;;;;4982960;28;20371;-86
2023/01/16 07:03:01;;;;;;;6.57;4.13;;;3.00;99.90;;;;;;5016275;28;20042;-87
2023/01/16 07:05:28;;;;;;;6.75;4.28;;;2.90;99.90;;;;;;5022892;28;20042;-84
2023/01/16 07:07:54;;;;;;;10.68;4.32;;;2.90;99.90;;;;;;5007052;28;20042;-85
2023/01/16 07:10:21;;;;;;;9.73;4.23;;;2.90;99.90;;;;;;5022163;28;20053;-84
2023/01/16 07:12:48;;;;;;;9.48;4.50;;;2.90;99.90;;;;;;4989782;28;20064;-85
2023/01/16 07:23:34;;;;;;;11.38;4.72;;;2.80;99.90;;;;;;5015760;28;20136;-86
2023/01/16 07:26:01;;;;;;;;;;;2.80;99.90;;;;;;4982651;28;20049;-85
2023/01/16 07:28:28;;;;;;;8.23;4.28;;;2.90;99.90;;;;;;4998239;28;20293;-83
2023/01/16 07:30:55;;;;;;;8.15;4.13;;;2.90;99.90;;;;;;5015693;28;20482;-83
2023/01/16 07:33:20;;;;;;;14.95;5.38;;;2.90;99.90;;;;;;5015335;28;20046;-81
2023/01/16 07:35:46;;;;;;;15.73;4.80;;;2.90;99.90;;;;;;5015537;28;20372;-80
2023/01/16 07:38:12;;;;;;;12.23;5.13;;;3.00;99.90;;;;;;5034874;28;20053;-81
2023/01/16 07:40:37;;;;;;;9.13;4.50;;;3.80;99.90;;;;;;5034217;28;20124;-82
2023/01/16 07:43:04;;;;;;;6.07;4.78;;;2.90;99.90;;;;;;5035243;28;20052;-85
2023/01/16 07:45:30;;;;;;;11.13;5.18;;;2.90;99.90;;;;;;5001358;28;20045;-85
2023/01/16 07:47:56;;;;;;;12.38;5.50;;;2.90;99.90;;;;;;5017114;28;20045;-82
2023/01/16 07:50:21;;;;;;;11.90;5.57;;;3.20;99.90;;;;;;5017437;28;20129;-83
2023/01/16 07:52:47;;;;;;;9.10;5.40;;;3.00;99.90;;;;;;5034981;28;20061;-81
2023/01/16 07:55:13;;;;;;;9.10;5.00;;;3.00;99.90;;;;;;5017204;28;20472;-80
2023/01/16 07:57:39;;;;;;;10.98;5.05;;;3.00;99.90;;;;;;5017302;28;20088;-83
2023/01/16 08:00:07;;;;;;;9.52;5.10;;;3.00;99.90;;;;;;5017160;28;20080;-80
2023/01/16 08:02:32;;;;;;;9.05;4.80;;;3.00;99.90;;;;;;5016982;28;20042;-82
2023/01/16 08:04:58;;;;;;;9.95;4.70;;;5.00;99.90;;;;;;5017454;28;20050;-80
2023/01/16 08:07:23;;;;;;;9.20;4.72;;;3.10;99.90;;;;;;5017520;28;20390;-84
2023/01/16 08:09:49;;;;;;;8.95;4.63;;;3.10;99.90;;;;;;5017200;28;20401;-82
2023/01/16 08:12:14;;;;;;;5.13;3.83;;;3.20;99.90;;;;;;5001066;28;20046;-82
2023/01/16 08:14:40;;;;;;;6.70;4.00;;;3.20;99.90;;;;;;5017426;28;20054;-83
2023/01/16 08:17:06;;;;;;;7.13;4.10;;;3.20;99.90;;;;;;5000978;28;20493;-82
2023/01/16 08:19:31;;;;;;;6.25;3.92;;;3.20;99.90;;;;;;5034270;28;20045;-80
2023/01/16 08:21:57;;;;;;;9.00;4.10;;;3.30;99.90;;;;;;5034074;28;20050;-80
2023/01/16 08:24:25;;;;;;;6.85;3.95;;;3.30;99.90;;;;;;5034492;28;20047;-82
2023/01/16 08:26:51;;;;;;;7.57;3.50;;;3.30;99.90;;;;;;5016894;28;20053;-85
2023/01/16 08:29:18;;;;;;;7.38;3.45;;;3.30;99.90;;;;;;5017450;28;20107;-80
2023/01/16 08:31:44;;;;;;;5.38;3.83;;;3.40;99.90;;;;;;5000290;28;20101;-81
2023/01/16 08:34:09;;;;;;;5.10;3.38;;;3.40;99.90;;;;;;5000398;28;20049;-80
2023/01/16 08:36:35;;;;;;;7.20;3.53;;;3.40;99.90;;;;;;5034157;28;20092;-81
2023/01/16 08:39:01;;;;;;;5.68;3.20;;;3.50;99.90;;;;;;5034275;28;20445;-81
2023/01/16 08:52:30;;;;;;;6.32;2.97;;;3.60;99.90;;;;;;5035399;28;20486;-86
2023/01/16 08:54:57;;;;;;;6.80;2.92;;;3.70;99.90;;;;;;5000662;28;20041;-82
2023/01/16 08:57:22;;;;;;;5.63;2.90;;;3.70;99.90;;;;;;5000850;28;20406;-83
2023/01/16 08:59:48;;;;;;;4.93;2.97;;;3.70;99.90;;;;;;5017407;28;20172;-82
2023/01/16 09:02:14;;;;;;;5.25;3.00;;;3.70;99.90;;;;;;5034488;28;20525;-80
2023/01/16 09:04:40;;;;;;;7.40;2.97;;;3.70;99.90;;;;;;5001557;28;20042;-81
2023/01/16 09:07:06;;;;;;;6.22;2.65;;;3.70;99.90;;;;;;5033808;28;20795;-82
2023/01/16 09:09:31;;;;;;;7.05;2.78;;;3.70;99.90;;;;;;5033880;28;20042;-80
2023/01/16 09:14:42;;;;;;;3.65;2.63;;;3.80;99.90;;;;;;5016162;28;20112;-80
2023/01/16 09:17:08;;;;;;;4.30;2.63;;;3.80;99.90;;;;;;5033766;28;20116;-83
2023/01/16 09:19:35;;;;;;;3.25;2.33;;;3.80;99.90;;;;;;5033610;28;20041;-81
2023/01/16 09:22:06;;;;;;;3.85;2.13;;;3.70;99.90;;;;;;5033521;28;20104;-82
2023/01/16 09:24:33;;;;;;;4.00;2.33;;;3.70;99.90;;;;;;5033645;28;20409;-80
2023/01/16 09:26:59;;;;;;;10.05;2.55;;;3.80;99.90;;;;;;4999532;28;20072;-81
2023/01/16 09:29:26;;;;;;;3.75;2.10;;;3.90;99.90;;;;;;5015810;28;20072;-81
2023/01/16 09:31:52;;;;;;;3.90;2.05;;;3.80;99.90;;;;;;5016158;28;20053;-81
2023/01/16 09:34:18;;;;;;;3.75;2.10;;;3.90;99.90;;;;;;5033390;28;20171;-81
2023/01/16 09:36:43;;;;;;;6.05;2.20;;;4.00;99.90;;;;;;5034089;28;20111;-84
2023/01/16 09:39:09;;;;;;;3.50;2.22;;;4.00;99.90;;;;;;5033966;28;20502;-81
2023/01/16 09:44:31;;;;;;;3.30;2.05;;;4.00;99.90;;;;;;5018845;28;20061;-81
2023/01/16 09:46:59;;;;;;;3.80;2.20;;;4.00;99.90;;;;;;5033721;28;20072;-83
2023/01/16 09:49:31;;;;;;;6.65;2.17;;;4.00;99.90;;;;;;5033940;28;20056;-80
2023/01/16 10:00:29;;;;;;;3.47;2.05;;;4.80;99.90;;;;;;5015695;28;20061;-84
2023/01/16 10:02:55;;;;;;;5.10;2.25;;;4.10;99.90;;;;;;5033241;28;20056;-83
2023/01/16 10:05:24;;;;;;;5.32;2.38;;;4.10;99.90;;;;;;5018726;28;20045;-81
2023/01/16 10:08:27;;;;;;;5.03;2.22;;;4.00;99.90;;;;;;5020115;28;20045;-85
2023/01/16 10:11:05;;;;;;;5.00;2.10;;;4.00;99.90;;;;;;4996771;28;20100;-86
2023/01/16 10:13:41;;;;;;;4.28;2.10;;;4.00;99.90;;;;;;5037260;28;20079;-86
2023/01/16 10:16:26;;;;;;;5.10;2.30;;;4.00;99.90;;;;;;5003529;28;20044;-87
2023/01/16 10:19:00;;;;;;;2.92;2.13;;;4.00;99.90;;;;;;5019436;28;20386;-85
2023/01/16 10:22:00;;;;;;;5.55;2.47;;;4.00;99.90;;;;;;5033775;28;20053;-83
2023/01/16 10:25:08;;;;;;;5.03;2.15;;;3.90;99.90;;;;;;5035865;28;20489;-82
2023/01/16 10:27:57;;;;;;;3.35;2.13;;;3.90;99.90;;;;;;5019317;28;20048;-82
2023/01/16 10:30:29;;;;;;;3.97;2.22;;;3.90;99.90;;;;;;5037127;28;20045;-81
2023/01/16 10:33:16;;;;;;;4.20;2.25;;;3.90;99.90;;;;;;5018647;28;20037;-82
2023/01/16 10:35:45;;;;;;;5.40;1.80;;;3.90;99.90;;;;;;5018496;28;20049;-82
2023/01/16 10:38:40;;;;;;;6.30;2.13;;;3.90;99.90;;;;;;5036381;28;20406;-81
2023/01/16 10:49:25;;;;;;;5.35;2.15;;;3.90;99.90;;;;;;5002218;28;20057;-82
2023/01/16 10:49:39;;;;;;;4.55;2.03;;;3.90;99.90;;;;;;5036267;28;20057;-82
2023/01/16 10:52:05;;;;;;;5.28;2.13;;;3.90;99.90;;;;;;5036323;28;20132;-81
2023/01/16 10:54:31;;;;;;;2.73;1.83;;;3.90;99.90;;;;;;5035990;28;20041;-82
2023/01/16 10:57:03;;;;;;;5.18;2.10;;;3.90;99.90;;;;;;5018608;28;20048;-82
2023/01/16 10:59:31;;;;;;;4.68;2.35;;;4.60;99.90;;;;;;5019043;28;20462;-82
2023/01/16 11:02:01;;;;;;;5.20;2.35;;;3.90;99.90;;;;;;5034998;28;20041;-81
2023/01/16 11:04:35;;;;;;;3.33;2.08;;;3.90;99.90;;;;;;5035748;28;20548;-82
2023/01/16 11:07:21;;;;;;;3.13;2.10;;;3.90;99.90;;;;;;5018374;28;20477;-82
2023/01/16 11:09:47;;;;;;;3.15;1.98;;;3.90;99.90;;;;;;5035817;28;20053;-82
2023/01/16 11:18:41;;;;;;;2.45;1.80;;;3.90;99.90;;;;;;5035169;28;20057;-81
2023/01/16 11:20:50;;;;;;;3.53;2.42;;;3.90;99.90;;;;;;5029892;28;20053;-81
2023/01/16 11:23:21;;;;;;;3.25;2.25;;;3.90;99.90;;;;;;5017951;28;20053;-82
2023/01/16 11:25:50;;;;;;;4.45;2.10;;;3.90;99.90;;;;;;5035699;28;20053;-82
2023/01/16 11:28:20;;;;;;;4.32;2.28;;;3.90;99.90;;;;;;5035658;28;20097;-81
2023/01/16 11:30:48;;;;;;;3.05;2.10;;;3.90;99.90;;;;;;5021150;28;20049;-83
2023/01/16 11:33:20;;;;;;;4.80;1.90;;;3.90;99.90;;;;;;5019816;28;20041;-80
2023/01/16 11:35:57;;;;;;;3.03;2.20;;;3.90;99.90;;;;;;5035256;28;20045;-82
2023/01/16 11:38:24;;;;;;;4.20;2.22;;;3.90;99.90;;;;;;5035272;28;20054;-82
2023/01/16 11:40:51;;;;;;;;;;;4.00;99.90;;;;;;5035505;28;20175;-81
2023/01/16 11:46:32;;;;;;;5.43;2.10;;;4.00;99.90;;;;;;5034757;28;20045;-83
2023/01/16 11:49:01;;;;;;;5.30;2.60;;;4.00;99.90;;;;;;5035122;28;20045;-81
2023/01/16 11:51:30;;;;;;;3.33;2.10;;;4.10;99.90;;;;;;5016996;28;20504;-82
2023/01/16 11:53:58;;;;;;;3.78;2.28;;;4.10;99.90;;;;;;5034802;28;20539;-82
2023/01/16 11:56:49;;;;;;;4.65;2.20;;;4.10;99.90;;;;;;5034515;28;20053;-80
2023/01/16 11:59:34;;;;;;;3.28;2.08;;;4.10;99.90;;;;;;5017185;28;20489;-85
2023/01/16 12:02:19;;;;;;;5.63;2.30;;;4.10;99.90;;;;;;5016952;28;20053;-82
2023/01/16 12:06:00;;;;;;;4.40;2.17;;;4.10;99.90;;;;;;5034762;28;20045;-85
2023/01/16 12:08:31;;;;;;;5.45;2.33;;;4.20;99.90;;;;;;5024950;28;20049;-82
2023/01/16 12:11:04;;;;;;;4.97;2.50;;;4.30;99.90;;;;;;5016764;28;20049;-81
2023/01/16 12:16:30;;;;;;;3.60;2.40;;;4.30;99.90;;;;;;5016525;28;20486;-79
2023/01/16 12:18:58;;;;;;;3.45;2.03;;;4.30;99.90;;;;;;5017021;28;20056;-82
2023/01/16 12:21:37;;;;;;;3.58;2.20;;;4.30;99.90;;;;;;5017162;28;20132;-80
2023/01/16 12:24:22;;;;;;;3.50;2.10;;;4.30;99.90;;;;;;5034227;28;20493;-79
2023/01/16 12:27:09;;;;;;;3.40;2.33;;;4.40;99.90;;;;;;5016388;28;20053;-81
2023/01/16 12:29:50;;;;;;;4.03;2.50;;;4.40;99.90;;;;;;5016662;28;20473;-81
2023/01/16 12:32:45;;;;;;;3.55;2.35;;;4.40;99.90;;;;;;5016938;28;20050;-82
2023/01/16 12:35:38;;;;;;;3.25;2.25;;;4.40;99.90;;;;;;5016603;28;20096;-80
2023/01/16 12:38:15;;;;;;;3.28;2.22;;;4.40;99.90;;;;;;5015854;28;20053;-81
2023/01/16 12:44:20;;;;;;;5.47;2.47;;;4.40;99.90;;;;;;5033750;28;20045;-81
2023/01/16 12:47:02;;;;;;;5.53;2.40;;;4.30;99.90;;;;;;5016069;28;20041;-80
2023/01/16 12:49:57;;;;;;;6.18;2.17;;;4.40;99.90;;;;;;5015958;28;20401;-80
2023/01/16 12:52:51;;;;;;;4.70;2.33;;;4.40;99.90;;;;;;5016459;28;20559;-81
2023/01/16 12:55:25;;;;;;;3.15;2.40;;;4.40;99.90;;;;;;5011813;28;20171;-80
2023/01/16 12:58:15;;;;;;;2.83;2.20;;;4.40;99.90;;;;;;5033446;28;20056;-79
2023/01/16 13:01:15;;;;;;;3.53;2.00;;;4.40;99.90;;;;;;5033760;28;20060;-80
2023/01/16 13:03:47;;;;;;;3.35;2.30;;;4.40;99.90;;;;;;5016137;28;20069;-80
2023/01/16 13:06:17;;;;;;;4.10;2.22;;;4.40;99.90;;;;;;5015805;28;20085;-81
2023/01/16 13:08:59;;;;;;;3.08;2.35;;;4.40;99.90;;;;;;5033436;28;20060;-81
2023/01/16 13:14:15;;;;;;;3.17;2.13;;;4.40;99.90;;;;;;5033571;28;20057;-81
2023/01/16 13:16:52;;;;;;;2.47;2.00;;;4.50;99.90;;;;;;5015906;28;20052;-80
2023/01/16 13:19:23;;;;;;;3.37;2.40;;;4.50;99.90;;;;;;5016069;28;20050;-79
2023/01/16 13:22:18;;;;;;;3.95;2.10;;;4.50;99.90;;;;;;5033485;28;20049;-80
2023/01/16 13:24:49;;;;;;;4.15;2.22;;;4.50;99.90;;;;;;5033773;28;20057;-80
2023/01/16 13:27:20;;;;;;;3.15;2.15;;;4.60;99.90;;;;;;5033451;28;20046;-80
2023/01/16 13:29:50;;;;;;;2.38;1.85;;;4.70;99.90;;;;;;5015830;28;20045;-80
2023/01/16 13:32:41;;;;;;;4.93;2.30;;;4.80;99.90;;;;;;5029820;28;20480;-79
2023/01/16 13:35:27;;;;;;;2.35;2.10;;;4.90;99.90;;;;;;5027580;28;20041;-79
2023/01/16 13:38:24;;;;;;;2.92;2.03;;;5.10;99.90;;;;;;5033302;28;20466;-80
2023/01/16 13:41:17;;;;;;;2.67;2.25;;;4.90;99.90;;;;;;5002638;28;20041;-79
2023/01/16 13:46:40;;;;;;;3.72;1.98;;;4.90;99.90;;;;;;5017083;28;20049;-80
2023/01/16 13:49:06;;;;;;;1.83;1.65;;;5.30;99.90;;;;;;5016677;28;20393;-80
2023/01/16 13:51:42;;;;;;;3.47;1.85;;;4.70;99.90;;;;;;5019942;28;20049;-80
2023/01/16 13:54:18;;;;;;;4.00;1.98;;;4.70;99.90;;;;;;5019801;28;20041;-80
2023/01/16 13:56:56;;;;;;;2.15;1.75;;;4.70;99.90;;;;;;5018637;28;20056;-79
2023/01/16 13:59:41;;;;;;;2.72;1.75;;;4.70;99.90;;;;;;5037323;28;20041;-79
2023/01/16 14:02:40;;;;;;;2.50;1.70;;;4.70;99.90;;;;;;5036997;28;20120;-79
2023/01/16 14:05:24;;;;;;;7.22;2.08;;;4.70;99.90;;;;;;5036992;28;20045;-81
2023/01/16 14:11:05;;;;;;;3.08;1.88;;;4.70;99.90;;;;;;4999634;28;20140;-80
2023/01/16 14:13:39;;;;;;;3.08;2.10;;;4.80;99.90;;;;;;5011250;28;20056;-81
2023/01/16 14:19:02;;;;;;;6.40;1.85;;;4.80;99.90;;;;;;5016850;28;20050;-80
2023/01/16 14:24:57;;;;;;;6.22;1.95;;;4.70;99.90;;;;;;4977304;28;20089;-80
2023/01/16 14:27:32;;;;;;;2.63;1.75;;;4.80;99.90;;;;;;5016834;28;20042;-80
2023/01/16 14:30:01;;;;;;;3.88;2.17;;;4.80;99.90;;;;;;5016412;28;20046;-85
2023/01/16 14:32:29;;;;;;;4.05;2.10;;;5.80;99.90;;;;;;5015716;28;20093;-80